Flight Briefing for CPX254

Departure Arrival
Princess Juliana International Airport (TNCM)
Click to view FAA NOTAMS
Miami International Airport (KMIA)
Click to view FAA NOTAMS
Departure Time Arrival Time
N/A N/A
Aircraft Distance
B767-300BDSF 1064nm
Departure METAR Arrival METAR
TNCM 260900Z 12009KT 090V150 9999 FEW018 SCT040 25/21 Q1015 A2997 KMIA 260853Z 27004KT 10SM FEW022 21/18 A3000 RMK AO2 SLP160 T02110178 56012
Suggested Route
PJM B520 STT RTE6 SJU ACONY Y308 FOWEE FLIPR6


View recent IFR Routes data
Notes



Charts and Procedures

Charts for TNCM
No chart available
Charts for KMIA
No chart available

Windy.com Weather Map